createdAt,value
2023-04-05T00:01:39.358Z,16.19
2023-04-05T00:04:08.220Z,16.18
2023-04-05T00:06:35.235Z,16.14
2023-04-05T00:09:03.956Z,16.16
2023-04-05T00:11:32.171Z,16.15
2023-04-05T00:14:00.715Z,16.13
2023-04-05T00:16:28.302Z,16.15
2023-04-05T00:18:56.726Z,16.13
2023-04-05T00:21:24.169Z,16.14
2023-04-05T00:23:51.864Z,16.12
2023-04-05T00:26:19.024Z,16.12
2023-04-05T00:28:45.983Z,16.12
2023-04-05T00:31:12.795Z,16.12
2023-04-05T00:33:39.727Z,16.12
2023-04-05T00:36:10.309Z,16.12
2023-04-05T00:38:37.362Z,16.12
2023-04-05T00:41:04.300Z,16.13
2023-04-05T00:43:31.197Z,16.08
2023-04-05T00:45:58.076Z,16.08
2023-04-05T00:48:25.792Z,16.09
2023-04-05T00:50:52.930Z,16.10
2023-04-05T00:53:20.288Z,16.11
2023-04-05T00:55:48.443Z,16.10
2023-04-05T00:58:18.452Z,16.10
2023-04-05T01:00:47.998Z,16.11
2023-04-05T01:03:15.038Z,16.09
2023-04-05T01:05:47.676Z,16.08
2023-04-05T01:08:17.790Z,16.08
2023-04-05T01:10:47.473Z,16.06
2023-04-05T01:13:16.649Z,16.06
2023-04-05T01:15:43.700Z,16.06
2023-04-05T01:18:11.618Z,16.06
2023-04-05T01:20:41.150Z,16.03
2023-04-05T01:23:11.670Z,16.03
2023-04-05T01:25:38.786Z,16.02
2023-04-05T01:28:08.734Z,16.03
2023-04-05T01:30:38.142Z,16.04
2023-04-05T01:33:14.639Z,16.05
2023-04-05T01:35:45.425Z,16.04
2023-04-05T01:38:15.668Z,16.02
2023-04-05T01:40:42.971Z,16.03
2023-04-05T01:43:13.021Z,16.01
2023-04-05T01:45:40.259Z,16.03
2023-04-05T01:48:07.222Z,16.02
2023-04-05T01:50:34.034Z,16.03
2023-04-05T01:53:00.770Z,16.03
2023-04-05T01:55:27.650Z,16.05
2023-04-05T01:57:56.023Z,16.02
2023-04-05T02:00:23.028Z,16.03
2023-04-05T02:02:54.739Z,16.03
2023-04-05T02:05:21.883Z,15.99
2023-04-05T02:07:48.779Z,16.01
2023-04-05T02:10:16.241Z,15.98
2023-04-05T02:12:43.234Z,16.02
2023-04-05T02:15:10.373Z,15.99
2023-04-05T02:17:40.184Z,16.00
2023-04-05T02:20:08.054Z,15.99
2023-04-05T02:22:34.816Z,15.99
2023-04-05T02:25:02.024Z,15.98
2023-04-05T02:27:28.884Z,15.98
2023-04-05T02:29:57.617Z,15.97
2023-04-05T02:32:25.073Z,15.98
2023-04-05T02:34:52.865Z,15.95
2023-04-05T02:37:20.111Z,15.95
2023-04-05T02:39:47.208Z,15.95
2023-04-05T02:42:14.056Z,15.96
2023-04-05T02:44:40.975Z,15.97
2023-04-05T02:47:07.741Z,15.95
2023-04-05T02:49:34.562Z,15.94
2023-04-05T02:52:01.295Z,15.93
2023-04-05T02:54:28.070Z,15.94
2023-04-05T02:56:58.222Z,15.95
2023-04-05T02:59:25.361Z,15.92
2023-04-05T03:01:52.185Z,15.90
2023-04-05T03:04:19.194Z,15.89
2023-04-05T03:06:48.991Z,15.89
2023-04-05T03:09:15.856Z,15.89
2023-04-05T03:11:42.700Z,15.89
2023-04-05T03:14:09.533Z,15.90
2023-04-05T03:16:37.457Z,15.89
2023-04-05T03:19:06.702Z,15.91
2023-04-05T03:21:34.265Z,15.90
2023-04-05T03:24:01.209Z,15.91
2023-04-05T03:26:27.999Z,15.88
2023-04-05T03:28:54.787Z,15.87
2023-04-05T03:31:21.879Z,15.88
2023-04-05T03:33:48.653Z,15.88
2023-04-05T03:36:16.936Z,15.90
2023-04-05T03:38:44.761Z,15.86
2023-04-05T03:41:11.702Z,15.87
2023-04-05T03:43:38.505Z,15.87
2023-04-05T03:46:05.289Z,15.88
2023-04-05T03:48:32.033Z,15.88
2023-04-05T03:50:59.122Z,15.86
2023-04-05T03:53:26.730Z,15.85
2023-04-05T03:55:54.538Z,15.86
2023-04-05T03:58:21.422Z,15.85
2023-04-05T04:00:50.902Z,15.86
2023-04-05T04:03:17.800Z,15.85
2023-04-05T04:05:44.986Z,15.84
2023-04-05T04:08:13.310Z,15.82
2023-04-05T04:10:40.096Z,15.84
2023-04-05T04:13:06.855Z,15.84
2023-04-05T04:15:33.643Z,15.80
2023-04-05T04:18:02.711Z,15.81
2023-04-05T04:20:29.679Z,15.83
2023-04-05T04:22:58.906Z,15.79
2023-04-05T04:25:26.936Z,15.80
2023-04-05T04:27:54.975Z,15.83
2023-04-05T04:30:22.954Z,15.81
2023-04-05T04:32:59.089Z,15.81
2023-04-05T04:35:29.373Z,15.78
2023-04-05T04:37:58.322Z,15.79
2023-04-05T04:40:45.093Z,15.83
2023-04-05T04:43:14.790Z,15.84
2023-04-05T04:45:42.081Z,15.79
2023-04-05T04:48:09.172Z,15.79
2023-04-05T04:50:36.312Z,15.78
2023-04-05T04:53:03.307Z,15.80
2023-04-05T04:55:30.761Z,15.77
2023-04-05T04:57:57.528Z,15.77
2023-04-05T05:00:25.219Z,15.77
2023-04-05T05:02:52.776Z,15.77
2023-04-05T05:05:22.997Z,15.76
2023-04-05T05:07:50.197Z,15.78
2023-04-05T05:10:17.002Z,15.75
2023-04-05T05:12:43.811Z,15.76
2023-04-05T05:15:11.050Z,15.75
2023-04-05T05:17:39.703Z,15.75
2023-04-05T05:20:11.336Z,15.76
2023-04-05T05:22:38.937Z,15.73
2023-04-05T05:25:06.534Z,15.74
2023-04-05T05:27:34.505Z,15.75
2023-04-05T05:30:01.559Z,15.76
2023-04-05T05:32:28.509Z,15.75
2023-04-05T05:34:55.541Z,15.75
2023-04-05T05:37:29.817Z,15.73
2023-04-05T05:39:56.778Z,15.74
2023-04-05T05:42:24.124Z,15.73
2023-04-05T05:44:50.953Z,15.71
2023-04-05T05:47:17.738Z,15.70
2023-04-05T05:49:44.574Z,15.70
2023-04-05T05:52:11.429Z,15.71
2023-04-05T05:54:38.347Z,15.73
2023-04-05T05:57:05.334Z,15.73
2023-04-05T05:59:32.290Z,15.75
2023-04-05T06:01:59.264Z,15.75
2023-04-05T06:04:26.751Z,15.72
2023-04-05T06:06:54.945Z,15.70
2023-04-05T06:09:24.305Z,15.72
2023-04-05T06:11:56.729Z,15.72
2023-04-05T06:14:24.684Z,15.71
2023-04-05T06:16:51.635Z,15.69
2023-04-05T06:19:18.611Z,15.70
2023-04-05T06:21:47.998Z,15.67
2023-04-05T06:24:14.839Z,15.69
2023-04-05T06:26:41.745Z,15.68
2023-04-05T06:29:08.694Z,15.69
2023-04-05T06:31:36.445Z,15.67
2023-04-05T06:34:03.316Z,15.67
2023-04-05T06:36:32.100Z,15.68
2023-04-05T06:38:59.594Z,15.66
2023-04-05T06:41:28.031Z,15.67
2023-04-05T06:43:55.147Z,15.68
2023-04-05T06:46:22.239Z,15.67
2023-04-05T06:48:50.230Z,15.68
2023-04-05T06:51:17.406Z,15.65
2023-04-05T06:53:44.325Z,15.66
2023-04-05T06:56:11.557Z,15.68
2023-04-05T06:58:39.153Z,15.71
2023-04-05T07:01:06.195Z,15.68
2023-04-05T07:03:34.129Z,15.72
2023-04-05T07:06:01.525Z,15.69
2023-04-05T07:08:29.253Z,15.71
2023-04-05T07:10:56.300Z,15.67
2023-04-05T07:13:24.262Z,15.71
2023-04-05T07:15:51.917Z,15.70
2023-04-05T07:18:19.597Z,15.70
2023-04-05T07:20:48.097Z,15.71
2023-04-05T07:23:15.076Z,15.71
2023-04-05T07:25:42.040Z,15.71
2023-04-05T07:28:09.028Z,15.68
2023-04-05T07:30:37.322Z,15.70
2023-04-05T07:33:04.675Z,15.69
2023-04-05T07:35:31.953Z,15.70
2023-04-05T07:37:58.964Z,15.69
2023-04-05T07:40:26.131Z,15.71
2023-04-05T07:42:53.276Z,15.68
2023-04-05T07:45:20.450Z,15.67
2023-04-05T07:47:47.616Z,15.66
2023-04-05T07:50:25.505Z,15.66
2023-04-05T07:52:52.512Z,15.68
2023-04-05T07:55:19.845Z,15.68
2023-04-05T07:57:46.847Z,15.68
2023-04-05T08:00:19.947Z,15.68
2023-04-05T08:02:49.513Z,15.71
2023-04-05T08:05:16.773Z,15.70
2023-04-05T08:07:43.847Z,15.69
2023-04-05T08:10:16.280Z,15.70
2023-04-05T08:12:43.171Z,15.69
2023-04-05T08:15:10.552Z,15.69
2023-04-05T08:17:37.542Z,15.70
2023-04-05T08:20:04.796Z,15.71
2023-04-05T08:22:34.270Z,15.71
2023-04-05T08:25:02.137Z,15.70
2023-04-05T08:27:29.590Z,15.72
2023-04-05T08:29:56.625Z,15.70
2023-04-05T08:32:23.799Z,15.72
2023-04-05T08:34:50.722Z,15.71
2023-04-05T08:37:17.887Z,15.68
2023-04-05T08:39:45.330Z,15.70
2023-04-05T08:42:18.110Z,15.72
2023-04-05T08:44:46.517Z,15.71
2023-04-05T08:47:22.774Z,15.71
2023-04-05T08:49:50.174Z,15.73
2023-04-05T08:52:17.299Z,15.73
2023-04-05T08:54:44.769Z,15.72
2023-04-05T08:57:12.085Z,15.75
2023-04-05T08:59:41.433Z,15.74
2023-04-05T09:02:15.065Z,15.71
2023-04-05T09:04:45.309Z,15.74
2023-04-05T09:07:14.082Z,15.75
2023-04-05T09:09:43.642Z,15.74
2023-04-05T09:12:11.423Z,15.70
2023-04-05T09:14:39.636Z,15.77
2023-04-05T09:17:06.893Z,15.77
2023-04-05T09:19:34.063Z,15.73
2023-04-05T09:22:03.362Z,15.75
2023-04-05T09:24:31.528Z,15.75
2023-04-05T09:27:08.257Z,15.76
2023-04-05T09:29:35.387Z,15.74
2023-04-05T09:32:04.272Z,15.76
2023-04-05T09:34:33.950Z,15.73
2023-04-05T09:37:03.305Z,15.75
2023-04-05T09:39:33.254Z,15.75
2023-04-05T09:42:10.158Z,15.77
2023-04-05T09:44:46.287Z,15.76
2023-04-05T09:47:17.763Z,15.77
2023-04-05T09:49:44.819Z,15.76
2023-04-05T09:52:21.812Z,15.79
2023-04-05T09:54:48.977Z,15.79
2023-04-05T09:57:17.299Z,15.78
2023-04-05T09:59:45.044Z,15.83
2023-04-05T10:02:12.493Z,15.81
2023-04-05T10:04:41.734Z,15.82
2023-04-05T10:07:12.322Z,15.81
2023-04-05T10:09:41.993Z,15.81
2023-04-05T10:12:10.078Z,15.82
2023-04-05T10:14:38.583Z,15.85
2023-04-05T10:17:08.754Z,15.84
2023-04-05T10:19:45.339Z,15.84
2023-04-05T10:22:15.403Z,15.84
2023-04-05T10:24:50.085Z,15.87
2023-04-05T10:27:19.537Z,15.86
2023-04-05T10:29:52.025Z,15.91
2023-04-05T10:32:23.840Z,15.89
2023-04-05T10:34:57.727Z,15.93
2023-04-05T10:37:32.543Z,15.95
2023-04-05T10:40:03.462Z,15.96
2023-04-05T10:42:36.904Z,16.02
2023-04-05T10:45:05.250Z,16.05
2023-04-05T10:47:35.779Z,16.06
2023-04-05T10:50:04.766Z,16.09
2023-04-05T10:52:33.831Z,16.12
2023-04-05T10:55:03.551Z,16.15
2023-04-05T10:57:30.853Z,16.18
2023-04-05T11:00:00.221Z,16.19
2023-04-05T11:02:29.169Z,16.19
2023-04-05T11:04:57.737Z,16.20
2023-04-05T11:07:24.950Z,16.24
2023-04-05T11:09:52.991Z,16.23
2023-04-05T11:12:21.010Z,16.24
2023-04-05T11:14:47.913Z,16.25
2023-04-05T11:17:24.070Z,16.26
2023-04-05T11:19:52.891Z,16.26
2023-04-05T11:22:29.136Z,16.28
2023-04-05T11:24:58.388Z,16.31
2023-04-05T11:27:26.367Z,16.33
2023-04-05T11:29:54.801Z,16.33
2023-04-05T11:32:22.098Z,16.34
2023-04-05T11:35:02.152Z,16.34
2023-04-05T11:37:38.109Z,16.36
2023-04-05T11:40:14.096Z,16.40
2023-04-05T11:42:41.892Z,16.35
2023-04-05T11:45:09.237Z,16.35
2023-04-05T11:47:37.972Z,16.34
2023-04-05T11:50:09.937Z,16.36
2023-04-05T11:52:36.791Z,16.40
2023-04-05T11:55:05.347Z,16.40
2023-04-05T11:57:33.589Z,16.39
2023-04-05T12:00:00.776Z,16.40
2023-04-05T12:02:35.458Z,16.37
2023-04-05T12:05:02.624Z,16.39
2023-04-05T12:07:32.817Z,16.36
2023-04-05T12:10:01.404Z,16.40
2023-04-05T12:12:28.456Z,16.42
2023-04-05T12:15:05.025Z,16.42
2023-04-05T12:17:39.774Z,16.49
2023-04-05T12:20:07.535Z,16.50
2023-04-05T12:22:35.169Z,16.50
2023-04-05T12:25:02.414Z,16.48
2023-04-05T12:27:29.926Z,16.48
2023-04-05T12:30:06.207Z,16.46
2023-04-05T12:32:37.056Z,16.51
2023-04-05T12:35:13.066Z,16.50
2023-04-05T12:37:41.175Z,16.47
2023-04-05T12:40:09.040Z,16.50
2023-04-05T12:42:36.749Z,16.49
2023-04-05T12:45:08.467Z,16.49
2023-04-05T12:47:36.457Z,16.51
2023-04-05T12:50:12.982Z,16.52
2023-04-05T12:52:39.876Z,16.51
2023-04-05T12:55:15.732Z,16.48
2023-04-05T12:57:43.791Z,16.49
2023-04-05T13:00:11.774Z,16.48
2023-04-05T13:02:38.827Z,16.49
2023-04-05T13:05:06.182Z,16.49
2023-04-05T13:07:36.773Z,16.46
2023-04-05T13:10:04.173Z,16.48
2023-04-05T13:12:31.014Z,16.50
2023-04-05T13:14:58.032Z,16.51
2023-04-05T13:17:25.472Z,16.51
2023-04-05T13:19:52.509Z,16.50
2023-04-05T13:22:19.376Z,16.49
2023-04-05T13:24:46.356Z,16.49
2023-04-05T13:27:13.930Z,16.49
2023-04-05T13:29:41.334Z,16.49
2023-04-05T13:32:08.193Z,16.50
2023-04-05T13:34:35.042Z,16.49
2023-04-05T13:37:02.188Z,16.49
2023-04-05T13:39:31.663Z,16.49
2023-04-05T13:41:58.768Z,16.51
2023-04-05T13:44:25.904Z,16.48
2023-04-05T13:46:58.688Z,16.50
2023-04-05T13:49:34.381Z,16.48
2023-04-05T13:52:01.322Z,16.52
2023-04-05T13:54:28.560Z,16.47
2023-04-05T13:56:55.870Z,16.49
2023-04-05T13:59:22.831Z,16.46
2023-04-05T14:01:50.167Z,16.49
2023-04-05T14:04:17.256Z,16.49
2023-04-05T14:06:44.630Z,16.47
2023-04-05T14:09:11.592Z,16.49
2023-04-05T14:11:39.174Z,16.51
2023-04-05T14:14:07.431Z,16.51
2023-04-05T14:16:34.447Z,16.49
2023-04-05T14:19:01.393Z,16.49
2023-04-05T14:21:29.262Z,16.50
2023-04-05T14:23:58.673Z,16.51
2023-04-05T14:26:26.571Z,16.52
2023-04-05T14:28:53.931Z,16.51
2023-04-05T14:31:20.905Z,16.50
2023-04-05T14:33:48.077Z,16.49
2023-04-05T14:36:15.234Z,16.49
2023-04-05T14:38:44.547Z,16.47
2023-04-05T14:41:12.293Z,16.48
2023-04-05T14:43:39.340Z,16.46
2023-04-05T14:46:06.383Z,16.45
2023-04-05T14:48:34.518Z,16.44
2023-04-05T14:51:13.005Z,16.43
2023-04-05T14:53:40.965Z,16.43
2023-04-05T14:56:18.890Z,16.44
2023-04-05T14:58:45.907Z,16.39
2023-04-05T15:01:19.780Z,16.39
2023-04-05T15:03:48.924Z,16.39
2023-04-05T15:06:16.776Z,16.41
2023-04-05T15:08:43.774Z,16.37
2023-04-05T15:11:24.499Z,16.39
2023-04-05T15:13:51.885Z,16.37
2023-04-05T15:16:21.688Z,16.39
2023-04-05T15:18:49.047Z,16.37
2023-04-05T15:21:18.756Z,16.35
2023-04-05T15:23:45.906Z,16.36
2023-04-05T15:26:13.215Z,16.38
2023-04-05T15:28:44.890Z,16.37
2023-04-05T15:31:14.155Z,16.36
2023-04-05T15:33:41.411Z,16.37
2023-04-05T15:36:08.413Z,16.34
2023-04-05T15:38:35.524Z,16.35
2023-04-05T15:41:17.433Z,16.37
2023-04-05T15:43:49.049Z,16.37
2023-04-05T15:46:19.488Z,16.39
2023-04-05T15:48:47.339Z,16.43
2023-04-05T15:51:17.697Z,16.43
2023-04-05T15:54:01.015Z,16.42
2023-04-05T15:56:32.614Z,16.42
2023-04-05T15:59:00.639Z,16.42
2023-04-05T16:01:31.230Z,16.41
2023-04-05T16:03:58.306Z,16.42
2023-04-05T16:06:28.670Z,16.42
2023-04-05T16:09:04.687Z,16.41
2023-04-05T16:12:10.052Z,16.43
2023-04-05T16:14:37.316Z,16.43
2023-04-05T16:19:51.697Z,16.46
2023-04-05T16:22:18.687Z,16.45
2023-04-05T16:24:45.857Z,16.45
2023-04-05T16:29:57.633Z,16.45
2023-04-05T16:32:30.567Z,16.43
2023-04-05T16:34:57.749Z,16.45
2023-04-05T16:37:25.286Z,16.42
2023-04-05T16:39:52.646Z,16.40
2023-04-05T16:42:19.629Z,16.41
2023-04-05T16:44:46.947Z,16.43
2023-04-05T16:47:13.861Z,16.43
2023-04-05T16:49:41.068Z,16.43
2023-04-05T16:52:08.335Z,16.41
2023-04-05T16:54:41.124Z,16.44
2023-04-05T16:57:08.883Z,16.42
2023-04-05T16:59:36.138Z,16.40
2023-04-05T17:02:19.772Z,16.40
2023-04-05T17:04:47.984Z,16.39
2023-04-05T17:07:21.941Z,16.40
2023-04-05T17:09:50.669Z,16.39
2023-04-05T17:12:17.964Z,16.39
2023-04-05T17:14:45.022Z,16.40
2023-04-05T17:17:12.328Z,16.40
2023-04-05T17:19:39.927Z,16.39
2023-04-05T17:22:07.081Z,16.36
2023-04-05T17:24:35.032Z,16.36
2023-04-05T17:27:02.954Z,16.36
2023-04-05T17:29:37.234Z,16.34
2023-04-05T17:32:04.299Z,16.34
2023-04-05T17:34:31.255Z,16.36
2023-04-05T17:36:58.325Z,16.35
2023-04-05T17:39:25.676Z,16.35
2023-04-05T17:41:55.190Z,16.35
2023-04-05T17:44:22.540Z,16.35
2023-04-05T17:47:01.315Z,16.32
2023-04-05T17:49:33.300Z,16.34
2023-04-05T17:52:01.043Z,16.36
2023-04-05T17:54:28.173Z,16.32
2023-04-05T17:56:55.270Z,16.34
2023-04-05T17:59:23.901Z,16.33
2023-04-05T18:01:54.102Z,16.33
2023-04-05T18:04:21.901Z,16.33
2023-04-05T18:06:49.098Z,16.31
2023-04-05T18:09:16.177Z,16.32
2023-04-05T18:11:43.148Z,16.32
2023-04-05T18:14:10.160Z,16.31
2023-04-05T18:16:37.689Z,16.29
2023-04-05T18:19:05.029Z,16.30
2023-04-05T18:21:32.672Z,16.30
2023-04-05T18:23:59.624Z,16.28
2023-04-05T18:26:26.543Z,16.30
2023-04-05T18:29:00.083Z,16.30
2023-04-05T18:31:27.586Z,16.30
2023-04-05T18:33:54.588Z,16.30
2023-04-05T18:36:21.692Z,16.32
2023-04-05T18:38:48.667Z,16.31
2023-04-05T18:41:15.661Z,16.31
2023-04-05T18:43:42.685Z,16.31
2023-04-05T18:46:09.716Z,16.30
2023-04-05T18:48:39.252Z,16.31
2023-04-05T18:51:06.517Z,16.30
2023-04-05T18:53:33.497Z,16.27
2023-04-05T18:56:00.375Z,16.27
2023-04-05T18:58:27.230Z,16.26
2023-04-05T19:00:55.707Z,16.25
2023-04-05T19:03:22.683Z,16.25
2023-04-05T19:05:51.037Z,16.27
2023-04-05T19:08:19.014Z,16.30
2023-04-05T19:10:45.946Z,16.28
2023-04-05T19:13:12.776Z,16.26
2023-04-05T19:15:40.225Z,16.25
2023-04-05T19:18:07.291Z,16.24
2023-04-05T19:20:34.229Z,16.26
2023-04-05T19:23:01.289Z,16.23
2023-04-05T19:25:28.166Z,16.25
2023-04-05T19:27:56.473Z,16.24
2023-04-05T19:30:24.432Z,16.28
2023-04-05T19:32:53.219Z,16.28
2023-04-05T19:35:20.204Z,16.28
2023-04-05T19:37:47.034Z,16.26
2023-04-05T19:40:13.983Z,16.24
2023-04-05T19:42:47.909Z,16.24
2023-04-05T19:45:21.733Z,16.23
2023-04-05T19:47:48.913Z,16.22
2023-04-05T19:50:27.561Z,16.22
2023-04-05T19:52:54.427Z,16.25
2023-04-05T19:55:32.065Z,16.23
2023-04-05T19:57:59.629Z,16.21
2023-04-05T20:00:35.392Z,16.23
2023-04-05T20:03:02.820Z,16.24
2023-04-05T20:05:39.056Z,16.23
2023-04-05T20:08:07.725Z,16.23
2023-04-05T20:10:40.867Z,16.22
2023-04-05T20:13:07.806Z,16.24
2023-04-05T20:15:39.110Z,16.23
2023-04-05T20:18:07.082Z,16.20
2023-04-05T20:20:34.538Z,16.22
2023-04-05T20:23:01.473Z,16.19
2023-04-05T20:25:38.487Z,16.16
2023-04-05T20:28:23.431Z,16.20
2023-04-05T20:30:50.384Z,16.19
2023-04-05T20:33:27.219Z,16.16
2023-04-05T20:35:54.102Z,16.18
2023-04-05T20:38:21.071Z,16.19
2023-04-05T20:40:47.907Z,16.17
2023-04-05T20:43:14.782Z,16.19
2023-04-05T20:45:42.405Z,16.20
2023-04-05T20:48:09.448Z,16.19
2023-04-05T20:50:36.784Z,16.20
2023-04-05T20:53:06.160Z,16.20
2023-04-05T20:55:33.094Z,16.20
2023-04-05T20:57:59.994Z,16.19
2023-04-05T21:00:27.045Z,16.20
2023-04-05T21:02:54.024Z,16.19
2023-04-05T21:05:20.995Z,16.21
2023-04-05T21:07:47.800Z,16.21
2023-04-05T21:10:14.937Z,16.16
2023-04-05T21:12:41.770Z,16.16
2023-04-05T21:15:09.071Z,16.16
2023-04-05T21:17:36.120Z,16.20
2023-04-05T21:20:02.971Z,16.16
2023-04-05T21:22:29.765Z,16.16
2023-04-05T21:24:56.656Z,16.16
2023-04-05T21:27:24.472Z,16.16
2023-04-05T21:29:51.626Z,16.17
2023-04-05T21:32:18.513Z,16.17
2023-04-05T21:34:45.316Z,16.16
2023-04-05T21:37:12.196Z,16.15
2023-04-05T21:39:39.046Z,16.15
2023-04-05T21:42:05.999Z,16.16
2023-04-05T21:44:32.851Z,16.15
2023-04-05T21:47:00.569Z,16.17
2023-04-05T21:49:27.421Z,16.18
2023-04-05T21:51:54.286Z,16.19
2023-04-05T21:54:21.236Z,16.18
2023-04-05T21:56:48.117Z,16.16
2023-04-05T21:59:14.982Z,16.13
2023-04-05T22:01:41.933Z,16.14
2023-04-05T22:04:08.835Z,16.13
2023-04-05T22:06:35.893Z,16.19
2023-04-05T22:09:02.707Z,16.16
2023-04-05T22:11:29.821Z,16.13
2023-04-05T22:13:56.710Z,16.13
2023-04-05T22:16:23.682Z,16.16
2023-04-05T22:18:50.685Z,16.14
2023-04-05T22:21:17.494Z,16.13
2023-04-05T22:23:44.377Z,16.16
2023-04-05T22:26:11.184Z,16.13
2023-04-05T22:28:38.164Z,16.15
2023-04-05T22:31:05.205Z,16.14
2023-04-05T22:33:32.042Z,16.17
2023-04-05T22:35:58.974Z,16.16
2023-04-05T22:38:26.124Z,16.16
2023-04-05T22:40:52.978Z,16.15
2023-04-05T22:43:19.887Z,16.15
2023-04-05T22:45:49.839Z,16.14
2023-04-05T22:48:16.861Z,16.12
2023-04-05T22:50:43.624Z,16.13
2023-04-05T22:53:10.449Z,16.10
2023-04-05T22:55:40.108Z,16.11
2023-04-05T22:58:07.501Z,16.14
2023-04-05T23:00:38.609Z,16.14
2023-04-05T23:03:05.956Z,16.12
2023-04-05T23:05:32.839Z,16.11
2023-04-05T23:07:59.635Z,16.13
2023-04-05T23:10:26.487Z,16.10
2023-04-05T23:12:53.390Z,16.11
2023-04-05T23:15:20.247Z,16.11
2023-04-05T23:17:50.058Z,16.11
2023-04-05T23:20:16.969Z,16.12
2023-04-05T23:22:43.786Z,16.08
2023-04-05T23:25:12.890Z,16.09
2023-04-05T23:27:39.743Z,16.10
2023-04-05T23:30:08.288Z,16.12
2023-04-05T23:32:35.091Z,16.14
2023-04-05T23:35:01.911Z,16.11
2023-04-05T23:37:28.668Z,16.10
2023-04-05T23:39:55.499Z,16.09
2023-04-05T23:42:22.430Z,16.12
2023-04-05T23:44:49.320Z,16.11
2023-04-05T23:47:16.468Z,16.10
2023-04-05T23:49:43.321Z,16.12
2023-04-05T23:52:10.136Z,16.10
2023-04-05T23:54:39.122Z,16.12
2023-04-05T23:57:05.972Z,16.07
2023-04-05T23:59:32.798Z,16.09
